This is the latest recevied weather packets stored in our database for station/object EA4HRG-10. If no packets are shown the sender has not sent any weather packets the latest 10 day(s).
| Time | Temp. | Humidity | Pressure | Rain* | Wind** | Luminosity | Snow |
|---|---|---|---|---|---|---|---|
| 1788342038 | 33.89° C | 34% | 1016.9 hPa | - | - | - | - |
| 1788341139 | 33.33° C | 36% | 1017.1 hPa | - | - | - | - |
| 1788340239 | 34.44° C | 35% | 1016.8 hPa | - | - | - | - |
| 1788339443 | 33.33° C | 37% | 1017.1 hPa | - | - | - | - |
| 1788339338 | 33.33° C | 37% | 1017.1 hPa | - | - | - | - |
| 1788337538 | 22.22° C | 67% | 1021.2 hPa | - | - | - | - |
| 1788335738 | 19.44° C | 75% | 1022.4 hPa | - | - | - | - |
| 1788334838 | 18.89° C | 80% | 1022.7 hPa | - | - | - | - |
| 1788333938 | 17.78° C | 82% | 1023 hPa | - | - | - | - |
| 1788333038 | 16.67° C | 82% | 1023.3 hPa | - | - | - | - |
| 1788332138 | 16.11° C | 83% | 1023.6 hPa | - | - | - | - |
| 1788331238 | 15° C | 85% | 1023.7 hPa | - | - | - | - |
| 1788330338 | 14.44° C | 86% | 1023.7 hPa | - | - | - | - |
| 1788329438 | 14.44° C | 85% | 1023.5 hPa | - | - | - | - |
| 1788328538 | 14.44° C | 85% | 1023.5 hPa | - | - | - | - |
| 1788327638 | 14.44° C | 84% | 1023.4 hPa | - | - | - | - |
| 1788326738 | 14.44° C | 85% | 1023.3 hPa | - | - | - | - |
| 1788325838 | 14.44° C | 83% | 1023.1 hPa | - | - | - | - |
| 1788324938 | 14.44° C | 84% | 1022.9 hPa | - | - | - | - |
| 1788324038 | 14.44° C | 85% | 1022.9 hPa | - | - | - | - |
| 1788323138 | 14.44° C | 82% | 1022.9 hPa | - | - | - | - |
| 1788322238 | 15° C | 84% | 1022.8 hPa | - | - | - | - |
| 1788321338 | 15.56° C | 83% | 1022.5 hPa | - | - | - | - |
| 1788320438 | 15.56° C | 82% | 1022.5 hPa | - | - | - | - |
| 1788319538 | 15.56° C | 82% | 1022.3 hPa | - | - | - | - |
* Rain since midnight (hover to see other rain measurements)
** Current wind speed in m/s (hover to see current wind gust speed)